createdAt,value
2019-04-22T00:01:06.933Z,9.50
2019-04-22T00:03:39.223Z,9.50
2019-04-22T00:06:25.668Z,9.50
2019-04-22T00:08:55.967Z,9.40
2019-04-22T00:11:29.111Z,9.40
2019-04-22T00:13:58.160Z,9.40
2019-04-22T00:16:32.054Z,9.40
2019-04-22T00:21:31.927Z,9.40
2019-04-22T00:23:59.874Z,9.30
2019-04-22T00:26:29.087Z,9.30
2019-04-22T00:29:20.823Z,9.30
2019-04-22T00:31:37.234Z,9.30
2019-04-22T00:34:06.144Z,9.30
2019-04-22T00:36:40.185Z,9.20
2019-04-22T00:39:17.955Z,9.20
2019-04-22T00:41:44.086Z,9.20
2019-04-22T00:44:15.633Z,9.10
2019-04-22T00:46:44.069Z,9.10
2019-04-22T00:49:53.018Z,9.10
2019-04-22T00:51:44.889Z,9.10
2019-04-22T00:54:08.657Z,9.10
2019-04-22T00:56:40.997Z,9.10
2019-04-22T00:59:11.471Z,9.10
2019-04-22T01:01:39.816Z,9.10
2019-04-22T01:04:12.477Z,9.00
2019-04-22T01:06:38.609Z,9.00
2019-04-22T01:09:14.688Z,9.00
2019-04-22T01:11:38.837Z,9.00
2019-04-22T01:14:06.454Z,9.00
2019-04-22T01:16:43.132Z,8.90
2019-04-22T01:19:12.298Z,8.90
2019-04-22T01:21:40.542Z,8.90
2019-04-22T01:24:09.170Z,8.90
2019-04-22T01:26:36.317Z,8.90
2019-04-22T01:29:02.453Z,8.90
2019-04-22T01:31:22.063Z,8.80
2019-04-22T01:34:03.058Z,8.80
2019-04-22T01:36:35.651Z,8.80
2019-04-22T01:39:13.802Z,8.80
2019-04-22T01:41:51.695Z,8.80
2019-04-22T01:46:45.054Z,8.70
2019-04-22T01:49:18.309Z,8.70
2019-04-22T01:54:25.101Z,8.70
2019-04-22T01:56:51.063Z,8.60
2019-04-22T01:59:06.274Z,8.60
2019-04-22T02:04:17.613Z,8.50
2019-04-22T02:06:48.530Z,8.50
2019-04-22T02:11:58.549Z,8.50
2019-04-22T02:14:25.329Z,8.50
2019-04-22T02:16:50.288Z,8.50
2019-04-22T02:19:25.449Z,8.50
2019-04-22T02:21:42.542Z,8.40
2019-04-22T02:24:20.116Z,8.40
2019-04-22T02:29:15.064Z,8.40
2019-04-22T02:31:48.978Z,8.30
2019-04-22T02:34:22.291Z,8.30
2019-04-22T02:36:51.365Z,8.30
2019-04-22T02:39:20.179Z,8.30
2019-04-22T02:41:54.774Z,8.30
2019-04-22T02:44:16.841Z,8.30
2019-04-22T02:49:25.317Z,8.30
2019-04-22T02:51:49.118Z,8.20
2019-04-22T02:56:45.469Z,8.20
2019-04-22T02:59:21.989Z,8.20
2019-04-22T03:01:47.791Z,8.20
2019-04-22T03:09:25.398Z,8.20
2019-04-22T03:14:22.784Z,8.20
2019-04-22T03:16:51.222Z,8.10
2019-04-22T03:19:34.085Z,8.10
2019-04-22T03:21:57.763Z,8.10
2019-04-22T03:26:59.245Z,8.20
2019-04-22T03:30:27.147Z,8.10
2019-04-22T03:33:03.054Z,8.20
2019-04-22T03:37:36.311Z,8.10
2019-04-22T03:40:04.619Z,8.10
2019-04-22T03:42:21.555Z,8.10
2019-04-22T03:45:10.288Z,8.20
2019-04-22T03:50:09.876Z,8.20
2019-04-22T03:52:20.765Z,8.20
2019-04-22T04:05:22.066Z,8.40
2019-04-22T04:12:28.818Z,8.60
2019-04-22T04:15:13.622Z,8.60
2019-04-22T04:17:37.445Z,8.70
2019-04-22T04:20:24.268Z,8.80
2019-04-22T04:25:22.083Z,8.90
2019-04-22T04:30:14.033Z,9.00
2019-04-22T04:37:46.819Z,9.20
2019-04-22T04:53:01.293Z,9.70
2019-04-22T04:55:10.333Z,9.70
2019-04-22T05:05:21.125Z,9.90
2019-04-22T05:07:40.441Z,10.00
2019-04-22T05:15:17.682Z,10.20
2019-04-22T05:20:13.369Z,10.30
2019-04-22T05:22:43.043Z,10.40
2019-04-22T05:25:15.085Z,10.50
2019-04-22T05:27:40.117Z,10.60
2019-04-22T05:32:38.512Z,10.80
2019-04-22T05:37:41.575Z,10.90
2019-04-22T05:40:19.273Z,11.00
2019-04-22T05:42:39.555Z,11.10
2019-04-22T05:47:46.450Z,11.30
2019-04-22T05:50:13.258Z,11.40
2019-04-22T05:52:49.882Z,11.50
2019-04-22T05:55:26.786Z,11.50
2019-04-22T05:57:51.089Z,11.50
2019-04-22T06:05:24.684Z,11.70
2019-04-22T06:07:55.414Z,11.70
2019-04-22T06:10:29.056Z,11.80
2019-04-22T06:12:55.379Z,11.90
2019-04-22T06:15:25.446Z,11.90
2019-04-22T06:18:07.716Z,12.00
2019-04-22T06:20:32.523Z,12.00
2019-04-22T06:23:04.104Z,12.20
2019-04-22T06:25:54.964Z,12.20
2019-04-22T06:30:41.760Z,12.30
2019-04-22T06:33:17.098Z,12.40
2019-04-22T06:35:45.709Z,12.40
2019-04-22T06:40:52.090Z,12.60
2019-04-22T06:43:16.302Z,12.70
2019-04-22T06:45:45.044Z,12.80
2019-04-22T06:48:19.136Z,12.80
2019-04-22T06:50:50.487Z,12.90
2019-04-22T06:53:17.493Z,13.00
2019-04-22T06:55:56.394Z,13.10
2019-04-22T06:58:21.531Z,13.20
2019-04-22T07:00:44.466Z,13.20
2019-04-22T07:05:52.464Z,13.40
2019-04-22T07:10:54.870Z,13.60
2019-04-22T07:13:27.374Z,13.60
2019-04-22T07:18:31.439Z,13.80
2019-04-22T07:21:04.213Z,13.80
2019-04-22T07:26:00.280Z,13.90
2019-04-22T07:28:27.436Z,14.00
2019-04-22T07:33:34.288Z,14.20
2019-04-22T07:36:25.439Z,14.20
2019-04-22T07:41:02.579Z,14.30
2019-04-22T07:43:51.699Z,14.50
2019-04-22T07:46:00.352Z,14.50
2019-04-22T07:48:43.434Z,14.60
2019-04-22T07:53:32.173Z,14.70
2019-04-22T07:56:06.800Z,14.70
2019-04-22T08:01:11.760Z,14.90
2019-04-22T08:03:47.714Z,15.00
2019-04-22T08:08:46.232Z,15.50
2019-04-22T08:11:21.574Z,15.60
2019-04-22T08:13:34.203Z,15.80
2019-04-22T08:16:02.643Z,16.00
2019-04-22T08:18:37.466Z,16.20
2019-04-22T08:21:04.502Z,16.50
2019-04-22T08:23:39.454Z,16.60
2019-04-22T08:26:00.906Z,16.80
2019-04-22T08:28:41.317Z,17.00
2019-04-22T08:31:10.553Z,17.10
2019-04-22T08:33:39.772Z,17.30
2019-04-22T08:38:43.658Z,17.90
2019-04-22T08:41:23.050Z,18.10
2019-04-22T08:43:52.389Z,18.30
2019-04-22T08:46:25.586Z,18.30
2019-04-22T08:48:43.960Z,18.50
2019-04-22T08:51:16.846Z,18.60
2019-04-22T08:53:49.970Z,19.00
2019-04-22T08:56:29.868Z,19.00
2019-04-22T08:58:50.794Z,19.10
2019-04-22T09:01:17.773Z,19.30
2019-04-22T09:03:46.909Z,19.60
2019-04-22T09:06:22.440Z,19.70
2019-04-22T09:08:50.097Z,20.00
2019-04-22T09:11:22.948Z,20.20
2019-04-22T09:13:52.102Z,20.30
2019-04-22T09:16:19.407Z,20.50
2019-04-22T09:18:50.572Z,20.50
2019-04-22T09:23:53.965Z,21.00
2019-04-22T09:26:27.026Z,20.70
2019-04-22T09:28:54.857Z,21.00
2019-04-22T09:31:19.871Z,21.20
2019-04-22T09:34:01.199Z,21.30
2019-04-22T09:36:24.348Z,21.50
2019-04-22T09:38:48.655Z,21.90
2019-04-22T09:41:18.827Z,22.20
2019-04-22T09:43:52.139Z,22.10
2019-04-22T09:46:23.045Z,22.10
2019-04-22T09:48:56.420Z,22.30
2019-04-22T09:51:18.627Z,22.20
2019-04-22T09:56:28.046Z,22.30
2019-04-22T09:58:50.081Z,22.30
2019-04-22T10:01:32.421Z,22.70
2019-04-22T10:03:56.437Z,22.30
2019-04-22T10:06:27.880Z,22.40
2019-04-22T10:10:01.456Z,21.90
2019-04-22T10:11:26.830Z,22.30
2019-04-22T10:13:54.255Z,22.20
2019-04-22T10:16:29.226Z,22.50
2019-04-22T10:18:52.954Z,22.80
2019-04-22T10:21:37.191Z,23.10
2019-04-22T10:23:55.958Z,23.50
2019-04-22T10:26:30.064Z,23.70
2019-04-22T10:31:23.978Z,24.20
2019-04-22T10:33:45.246Z,24.50
2019-04-22T10:35:59.342Z,24.90
2019-04-22T10:38:28.395Z,25.30
2019-04-22T10:40:58.549Z,24.50
2019-04-22T10:43:27.549Z,23.10
2019-04-22T10:45:56.107Z,22.90
2019-04-22T10:48:26.077Z,23.90
2019-04-22T10:50:54.874Z,24.80
2019-04-22T10:53:23.851Z,25.30
2019-04-22T10:55:52.443Z,25.40
2019-04-22T10:58:21.460Z,25.90
2019-04-22T11:00:52.250Z,25.40
2019-04-22T11:03:22.482Z,25.50
2019-04-22T11:05:53.889Z,24.80
2019-04-22T11:08:31.967Z,24.10
2019-04-22T11:11:08.305Z,24.40
2019-04-22T11:13:22.210Z,24.20
2019-04-22T11:15:50.979Z,24.40
2019-04-22T11:18:19.884Z,25.50
2019-04-22T11:20:49.553Z,25.70
2019-04-22T11:23:18.620Z,24.80
2019-04-22T11:25:48.020Z,23.60
2019-04-22T11:28:17.818Z,23.00
2019-04-22T11:30:48.123Z,23.00
2019-04-22T11:33:16.646Z,23.00
2019-04-22T11:35:45.911Z,23.20
2019-04-22T11:38:15.061Z,24.00
2019-04-22T11:40:47.956Z,25.20
2019-04-22T11:43:14.542Z,25.50
2019-04-22T11:45:42.409Z,25.80
2019-04-22T11:48:11.274Z,26.60
2019-04-22T11:50:40.085Z,25.80
2019-04-22T11:53:08.950Z,24.80
2019-04-22T11:55:37.564Z,24.40
2019-04-22T11:58:06.627Z,25.40
2019-04-22T12:00:37.004Z,25.30
2019-04-22T12:03:07.111Z,25.60
2019-04-22T12:05:35.857Z,25.20
2019-04-22T12:08:05.022Z,24.40
2019-04-22T12:10:42.642Z,23.90
2019-04-22T12:13:06.238Z,23.90
2019-04-22T12:15:35.215Z,24.50
2019-04-22T12:18:03.879Z,25.70
2019-04-22T12:20:33.016Z,25.00
2019-04-22T12:23:01.162Z,24.10
2019-04-22T12:25:41.401Z,23.50
2019-04-22T12:28:01.021Z,24.00
2019-04-22T12:30:29.879Z,25.10
2019-04-22T12:32:58.369Z,24.80
2019-04-22T12:35:28.293Z,24.40
2019-04-22T12:38:01.504Z,24.10
2019-04-22T12:40:39.506Z,24.10
2019-04-22T12:42:57.734Z,24.80
2019-04-22T12:45:26.662Z,26.20
2019-04-22T12:47:55.950Z,26.50
2019-04-22T12:50:31.006Z,27.40
2019-04-22T12:53:02.473Z,28.00
2019-04-22T12:55:26.129Z,28.60
2019-04-22T12:57:57.422Z,28.80
2019-04-22T13:00:24.794Z,29.70
2019-04-22T13:02:54.665Z,29.50
2019-04-22T13:05:23.256Z,30.30
2019-04-22T13:07:51.857Z,30.80
2019-04-22T13:10:21.849Z,31.50
2019-04-22T13:12:50.968Z,31.40
2019-04-22T13:15:20.089Z,31.40
2019-04-22T13:18:02.384Z,31.00
2019-04-22T13:20:20.290Z,31.20
2019-04-22T13:22:48.897Z,31.10
2019-04-22T13:25:17.701Z,31.00
2019-04-22T13:27:46.834Z,31.60
2019-04-22T13:30:16.571Z,31.20
2019-04-22T13:32:45.131Z,31.60
2019-04-22T13:35:18.478Z,31.90
2019-04-22T13:37:46.692Z,30.60
2019-04-22T13:40:15.344Z,28.90
2019-04-22T13:42:44.875Z,27.90
2019-04-22T13:45:15.753Z,27.10
2019-04-22T13:48:06.292Z,26.80
2019-04-22T13:57:58.297Z,24.80
2019-04-22T14:00:20.819Z,24.70
2019-04-22T14:02:56.611Z,24.50
2019-04-22T14:05:26.881Z,23.70
2019-04-22T14:07:57.585Z,23.30
2019-04-22T14:10:26.946Z,23.00
2019-04-22T14:12:55.424Z,22.70
2019-04-22T14:15:24.337Z,22.60
2019-04-22T14:17:52.916Z,22.70
2019-04-22T14:20:24.060Z,22.70
2019-04-22T14:22:52.751Z,22.80
2019-04-22T14:25:22.823Z,22.80
2019-04-22T14:28:00.247Z,22.70
2019-04-22T14:30:21.799Z,22.60
2019-04-22T14:32:51.216Z,22.60
2019-04-22T14:35:20.870Z,22.80
2019-04-22T14:37:50.262Z,22.60
2019-04-22T14:40:20.271Z,22.40
2019-04-22T14:44:15.607Z,22.10
2019-04-22T14:45:50.243Z,22.20
2019-04-22T14:48:15.426Z,22.20
2019-04-22T14:50:42.264Z,22.10
2019-04-22T14:53:07.832Z,22.20
2019-04-22T14:55:25.299Z,22.30
2019-04-22T14:57:50.958Z,22.20
2019-04-22T15:00:22.029Z,22.10
2019-04-22T15:02:51.885Z,22.10
2019-04-22T15:05:22.032Z,22.10
2019-04-22T15:07:50.745Z,21.90
2019-04-22T15:10:20.182Z,21.80
2019-04-22T15:12:51.685Z,21.60
2019-04-22T15:15:27.158Z,21.60
2019-04-22T15:18:00.970Z,21.80
2019-04-22T15:20:37.583Z,21.80
2019-04-22T15:23:06.708Z,21.80
2019-04-22T15:25:36.645Z,21.50
2019-04-22T15:28:05.774Z,21.50
2019-04-22T15:30:35.189Z,21.50
2019-04-22T15:33:03.812Z,21.50
2019-04-22T15:35:33.585Z,21.50
2019-04-22T15:38:04.504Z,21.70
2019-04-22T15:40:32.416Z,21.70
2019-04-22T15:43:02.559Z,21.60
2019-04-22T15:45:32.568Z,21.30
2019-04-22T15:48:02.071Z,21.10
2019-04-22T15:50:30.941Z,20.90
2019-04-22T15:53:02.522Z,20.90
2019-04-22T15:55:29.824Z,20.90
2019-04-22T15:57:59.407Z,20.70
2019-04-22T16:00:40.763Z,20.70
2019-04-22T16:02:59.636Z,20.60
2019-04-22T16:05:28.293Z,20.70
2019-04-22T16:07:57.034Z,20.60
2019-04-22T16:10:26.110Z,20.50
2019-04-22T16:13:05.519Z,20.40
2019-04-22T16:15:26.294Z,20.40
2019-04-22T16:17:55.074Z,20.30
2019-04-22T16:20:23.496Z,20.20
2019-04-22T16:23:09.539Z,20.20
2019-04-22T16:25:42.972Z,20.00
2019-04-22T16:28:13.012Z,20.00
2019-04-22T16:30:41.739Z,20.00
2019-04-22T16:33:10.269Z,19.90
2019-04-22T16:35:38.837Z,20.00
2019-04-22T16:38:08.604Z,19.90
2019-04-22T16:40:38.741Z,19.80
2019-04-22T16:43:09.534Z,20.20
2019-04-22T16:45:37.815Z,20.40
2019-04-22T16:48:07.492Z,20.20
2019-04-22T16:50:39.304Z,19.90
2019-04-22T16:53:06.355Z,19.80
2019-04-22T16:55:35.168Z,19.70
2019-04-22T16:58:05.166Z,19.60
2019-04-22T17:00:34.431Z,19.50
2019-04-22T17:03:20.818Z,19.50
2019-04-22T17:05:53.815Z,20.30
2019-04-22T17:08:24.543Z,20.10
2019-04-22T17:10:53.634Z,19.80
2019-04-22T17:13:25.385Z,19.60
2019-04-22T17:15:53.918Z,19.40
2019-04-22T17:18:23.238Z,19.20
2019-04-22T17:20:52.907Z,19.10
2019-04-22T17:23:21.544Z,18.90
2019-04-22T17:25:50.320Z,18.90
2019-04-22T17:28:19.329Z,18.80
2019-04-22T17:30:47.869Z,18.70
2019-04-22T17:33:16.913Z,18.60
2019-04-22T17:35:47.185Z,18.60
2019-04-22T17:38:26.242Z,18.50
2019-04-22T17:41:01.288Z,18.40
2019-04-22T17:43:52.588Z,18.40
2019-04-22T17:46:12.098Z,18.30
2019-04-22T17:49:06.046Z,18.20
2019-04-22T17:51:36.319Z,18.20
2019-04-22T17:54:11.015Z,18.10
2019-04-22T17:56:37.616Z,18.00
2019-04-22T17:59:10.544Z,17.90
2019-04-22T18:01:32.643Z,17.90
2019-04-22T18:03:52.891Z,17.80
2019-04-22T18:06:44.020Z,17.70
2019-04-22T18:09:04.995Z,17.60
2019-04-22T18:11:48.279Z,17.60
2019-04-22T18:14:25.709Z,17.50
2019-04-22T18:16:37.070Z,17.40
2019-04-22T18:19:10.086Z,17.40
2019-04-22T18:21:35.130Z,17.30
2019-04-22T18:24:01.342Z,17.20
2019-04-22T18:26:45.881Z,17.10
2019-04-22T18:29:12.915Z,17.10
2019-04-22T18:31:32.987Z,17.10
2019-04-22T18:34:06.893Z,17.00
2019-04-22T18:36:37.239Z,16.90
2019-04-22T18:39:18.570Z,16.90
2019-04-22T18:41:40.680Z,16.70
2019-04-22T18:44:19.958Z,16.60
2019-04-22T18:46:40.671Z,16.60
2019-04-22T18:49:12.373Z,16.60
2019-04-22T18:51:55.990Z,16.50
2019-04-22T18:54:36.428Z,16.50
2019-04-22T18:57:08.350Z,16.40
2019-04-22T18:59:26.265Z,16.40
2019-04-22T19:01:52.347Z,16.30
2019-04-22T19:04:27.559Z,16.20
2019-04-22T19:07:17.220Z,16.20
2019-04-22T19:09:53.274Z,16.20
2019-04-22T19:12:22.256Z,16.10
2019-04-22T19:14:50.014Z,16.00
2019-04-22T19:17:28.486Z,16.00
2019-04-22T19:19:49.746Z,16.00
2019-04-22T19:22:16.270Z,15.90
2019-04-22T19:24:45.929Z,15.90
2019-04-22T19:27:16.199Z,15.80
2019-04-22T19:29:55.795Z,15.80
2019-04-22T19:32:21.368Z,15.70
2019-04-22T19:34:47.813Z,15.60
2019-04-22T19:37:17.411Z,15.60
2019-04-22T19:39:52.646Z,15.50
2019-04-22T19:42:27.057Z,15.50
2019-04-22T19:44:50.771Z,15.50
2019-04-22T19:52:26.066Z,15.40
2019-04-22T19:54:46.676Z,15.30
2019-04-22T19:57:20.274Z,15.20
2019-04-22T19:59:49.879Z,15.10
2019-04-22T20:02:17.616Z,15.10
2019-04-22T20:05:05.835Z,15.10
2019-04-22T20:07:29.579Z,15.00
2019-04-22T20:10:05.435Z,15.00
2019-04-22T20:12:31.872Z,15.00
2019-04-22T20:15:00.402Z,14.90
2019-04-22T20:17:41.727Z,14.80
2019-04-22T20:20:14.378Z,14.80
2019-04-22T20:22:34.141Z,14.70
2019-04-22T20:24:55.347Z,14.70
2019-04-22T20:27:36.286Z,14.70
2019-04-22T20:30:04.748Z,14.60
2019-04-22T20:32:32.334Z,14.50
2019-04-22T20:35:07.431Z,14.50
2019-04-22T20:37:38.594Z,14.50
2019-04-22T20:40:05.418Z,14.40
2019-04-22T20:42:43.641Z,14.40
2019-04-22T20:45:13.099Z,14.30
2019-04-22T20:47:32.942Z,14.30
2019-04-22T20:50:07.450Z,14.30
2019-04-22T20:52:52.745Z,14.20
2019-04-22T20:55:03.101Z,14.20
2019-04-22T20:57:46.262Z,14.10
2019-04-22T21:00:02.228Z,14.10
2019-04-22T21:02:32.643Z,14.00
2019-04-22T21:04:57.071Z,14.00
2019-04-22T21:07:36.197Z,14.00
2019-04-22T21:10:04.631Z,13.90
2019-04-22T21:12:33.184Z,13.90
2019-04-22T21:15:12.531Z,13.90
2019-04-22T21:17:42.872Z,13.80
2019-04-22T21:20:17.335Z,13.80
2019-04-22T21:22:43.403Z,13.70
2019-04-22T21:25:05.864Z,13.70
2019-04-22T21:27:45.335Z,13.60
2019-04-22T21:30:14.433Z,13.60
2019-04-22T21:32:45.133Z,13.50
2019-04-22T21:35:22.859Z,13.40
2019-04-22T21:37:54.194Z,13.40
2019-04-22T21:40:18.145Z,13.40
2019-04-22T21:42:58.291Z,13.40
2019-04-22T21:45:15.159Z,13.30
2019-04-22T21:47:57.743Z,13.30
2019-04-22T21:50:35.636Z,13.20
2019-04-22T21:52:59.503Z,13.20
2019-04-22T21:55:25.237Z,13.20
2019-04-22T21:58:04.848Z,13.10
2019-04-22T22:00:40.854Z,13.10
2019-04-22T22:03:00.592Z,13.00
2019-04-22T22:05:22.174Z,13.00
2019-04-22T22:07:50.867Z,13.00
2019-04-22T22:10:29.698Z,13.00
2019-04-22T22:13:00.232Z,12.90
2019-04-22T22:15:31.833Z,12.80
2019-04-22T22:18:00.382Z,12.80
2019-04-22T22:20:22.783Z,12.90
2019-04-22T22:23:22.312Z,12.80
2019-04-22T22:25:27.991Z,12.80
2019-04-22T22:27:53.355Z,12.80
2019-04-22T22:33:04.066Z,12.70
2019-04-22T22:35:31.600Z,12.70
2019-04-22T22:37:58.035Z,12.70
2019-04-22T22:40:17.468Z,12.60
2019-04-22T22:42:45.612Z,12.60
2019-04-22T22:45:22.589Z,12.50
2019-04-22T22:48:09.655Z,12.50
2019-04-22T22:50:30.410Z,12.50
2019-04-22T22:53:17.073Z,12.50
2019-04-22T22:55:37.499Z,12.40
2019-04-22T22:58:06.189Z,12.40
2019-04-22T23:00:32.256Z,12.40
2019-04-22T23:03:17.037Z,12.30
2019-04-22T23:05:37.663Z,12.30
2019-04-22T23:08:09.581Z,12.20
2019-04-22T23:10:47.687Z,12.20
2019-04-22T23:13:16.268Z,12.20
2019-04-22T23:15:27.756Z,12.10
2019-04-22T23:17:45.581Z,12.10
2019-04-22T23:20:18.512Z,12.10
2019-04-22T23:23:10.230Z,12.00
2019-04-22T23:25:51.699Z,12.00
2019-04-22T23:28:12.647Z,12.00
2019-04-22T23:30:40.053Z,11.90
2019-04-22T23:33:22.980Z,11.90
2019-04-22T23:35:46.993Z,11.90
2019-04-22T23:38:21.245Z,11.80
2019-04-22T23:40:50.680Z,11.80
2019-04-22T23:43:27.297Z,11.80
2019-04-22T23:45:57.809Z,11.70
2019-04-22T23:48:20.472Z,11.60
2019-04-22T23:51:00.648Z,11.70
2019-04-22T23:53:35.228Z,11.60
2019-04-22T23:56:03.250Z,11.60
2019-04-22T23:58:50.029Z,11.60
